createdAt,value
2023-04-02T00:00:35.898Z,68.65
2023-04-02T00:03:05.877Z,68.63
2023-04-02T00:05:51.587Z,68.62
2023-04-02T00:08:28.440Z,68.84
2023-04-02T00:10:58.333Z,68.99
2023-04-02T00:13:46.817Z,68.99
2023-04-02T00:16:18.233Z,69.15
2023-04-02T00:18:48.989Z,69.05
2023-04-02T00:21:28.366Z,69.15
2023-04-02T00:23:57.180Z,69.17
2023-04-02T00:26:34.335Z,69.18
2023-04-02T00:29:03.796Z,69.23
2023-04-02T00:31:38.295Z,69.33
2023-04-02T00:34:08.395Z,69.34
2023-04-02T00:36:36.693Z,69.20
2023-04-02T00:39:11.299Z,69.02
2023-04-02T00:41:47.261Z,68.87
2023-04-02T00:44:22.129Z,69.09
2023-04-02T00:46:50.778Z,69.39
2023-04-02T00:49:33.098Z,69.32
2023-04-02T00:52:12.156Z,69.24
2023-04-02T00:54:51.871Z,69.47
2023-04-02T00:57:25.595Z,69.36
2023-04-02T01:00:05.870Z,69.30
2023-04-02T01:02:38.593Z,69.20
2023-04-02T01:05:18.031Z,69.15
2023-04-02T01:08:07.212Z,69.16
2023-04-02T01:11:09.861Z,69.10
2023-04-02T01:13:57.615Z,69.25
2023-04-02T01:16:36.585Z,69.22
2023-04-02T01:19:29.084Z,68.92
2023-04-02T01:22:07.316Z,68.88
2023-04-02T01:24:38.964Z,68.92
2023-04-02T01:27:33.335Z,69.13
2023-04-02T01:30:03.767Z,69.09
2023-04-02T01:32:34.073Z,69.12
2023-04-02T01:35:02.194Z,69.26
2023-04-02T01:37:49.533Z,69.18
2023-04-02T01:40:20.963Z,69.19
2023-04-02T01:43:04.296Z,69.17
2023-04-02T01:45:35.250Z,69.11
2023-04-02T01:48:34.303Z,69.17
2023-04-02T01:51:07.048Z,69.38
2023-04-02T01:53:35.987Z,69.47
2023-04-02T01:56:05.076Z,69.33
2023-04-02T01:58:34.374Z,68.98
2023-04-02T02:01:13.058Z,68.98
2023-04-02T02:03:43.215Z,69.05
2023-04-02T02:06:16.216Z,69.16
2023-04-02T02:09:04.635Z,69.06
2023-04-02T02:11:34.241Z,69.13
2023-04-02T02:14:23.020Z,69.30
2023-04-02T02:16:56.778Z,69.42
2023-04-02T02:19:44.027Z,69.33
2023-04-02T02:22:32.913Z,69.30
2023-04-02T02:25:03.023Z,69.47
2023-04-02T02:27:51.934Z,69.56
2023-04-02T02:30:38.605Z,69.57
2023-04-02T02:33:26.493Z,69.54
2023-04-02T02:36:00.956Z,69.68
2023-04-02T02:38:48.480Z,69.97
2023-04-02T02:41:49.068Z,70.10
2023-04-02T02:44:37.159Z,70.10
2023-04-02T02:47:16.927Z,70.11
2023-04-02T02:49:47.508Z,70.25
2023-04-02T02:52:27.307Z,70.24
2023-04-02T02:55:05.483Z,70.31
2023-04-02T02:58:07.173Z,70.21
2023-04-02T03:00:41.163Z,70.24
2023-04-02T03:03:12.784Z,70.22
2023-04-02T03:05:42.124Z,70.46
2023-04-02T03:08:21.767Z,70.51
2023-04-02T03:11:02.371Z,70.37
2023-04-02T03:13:35.863Z,70.45
2023-04-02T03:16:29.498Z,70.41
2023-04-02T03:19:13.237Z,70.40
2023-04-02T03:22:03.360Z,70.29
2023-04-02T03:24:58.643Z,70.23
2023-04-02T03:27:35.443Z,70.35
2023-04-02T03:30:18.648Z,70.50
2023-04-02T03:32:47.799Z,70.46
2023-04-02T03:35:32.991Z,70.37
2023-04-02T03:38:07.492Z,70.16
2023-04-02T03:40:40.271Z,70.07
2023-04-02T03:43:16.792Z,70.05
2023-04-02T03:45:49.328Z,70.38
2023-04-02T03:48:27.237Z,70.46
2023-04-02T03:51:04.572Z,70.53
2023-04-02T03:53:32.821Z,70.57
2023-04-02T03:56:01.228Z,70.39
2023-04-02T03:58:47.101Z,70.35
2023-04-02T04:01:32.125Z,70.19
2023-04-02T04:04:17.744Z,70.01
2023-04-02T04:06:48.084Z,70.12
2023-04-02T04:09:38.080Z,70.23
2023-04-02T04:12:19.456Z,70.20
2023-04-02T04:15:05.167Z,70.29
2023-04-02T04:18:02.564Z,70.09
2023-04-02T04:20:40.004Z,70.01
2023-04-02T04:23:10.833Z,70.00
2023-04-02T04:25:40.183Z,70.30
2023-04-02T04:28:24.479Z,70.57
2023-04-02T04:31:09.250Z,70.43
2023-04-02T04:33:50.727Z,70.39
2023-04-02T04:36:28.935Z,70.38
2023-04-02T04:39:14.747Z,70.13
2023-04-02T04:41:46.078Z,69.95
2023-04-02T04:44:23.756Z,69.99
2023-04-02T04:47:08.641Z,69.99
2023-04-02T04:50:17.161Z,70.14
2023-04-02T04:52:45.645Z,70.28
2023-04-02T04:55:26.538Z,70.22
2023-04-02T04:58:04.893Z,70.15
2023-04-02T05:00:49.967Z,70.06
2023-04-02T05:03:47.002Z,70.10
2023-04-02T05:06:32.065Z,70.12
2023-04-02T05:09:08.027Z,70.24
2023-04-02T05:11:39.946Z,70.17
2023-04-02T05:14:12.831Z,70.05
2023-04-02T05:16:46.273Z,70.04
2023-04-02T05:19:24.105Z,69.95
2023-04-02T05:22:18.205Z,69.84
2023-04-02T05:24:54.694Z,70.02
2023-04-02T05:27:27.532Z,69.96
2023-04-02T05:30:13.247Z,69.97
2023-04-02T05:32:48.023Z,70.03
2023-04-02T05:35:17.799Z,69.83
2023-04-02T05:37:46.806Z,69.79
2023-04-02T05:40:40.067Z,70.05
2023-04-02T05:43:10.737Z,70.18
2023-04-02T05:45:42.750Z,70.30
2023-04-02T05:48:17.780Z,70.10
2023-04-02T05:50:49.735Z,69.96
2023-04-02T05:53:49.159Z,69.89
2023-04-02T05:56:17.732Z,69.86
2023-04-02T05:58:53.476Z,69.85
2023-04-02T06:01:36.535Z,69.77
2023-04-02T06:04:16.518Z,69.86
2023-04-02T06:06:48.980Z,70.07
2023-04-02T06:09:24.577Z,69.99
2023-04-02T06:12:04.643Z,70.04
2023-04-02T06:14:35.214Z,69.84
2023-04-02T06:17:04.159Z,69.75
2023-04-02T06:19:36.224Z,69.68
2023-04-02T06:22:10.647Z,69.78
2023-04-02T06:24:38.965Z,69.85
2023-04-02T06:27:07.626Z,69.92
2023-04-02T06:29:40.910Z,70.03
2023-04-02T06:32:14.095Z,70.12
2023-04-02T06:34:45.513Z,69.92
2023-04-02T06:37:30.730Z,69.92
2023-04-02T06:40:44.974Z,70.03
2023-04-02T06:44:05.708Z,69.89
2023-04-02T06:46:53.465Z,69.93
2023-04-02T06:49:33.265Z,69.89
2023-04-02T06:52:06.040Z,69.54
2023-04-02T06:54:34.534Z,69.52
2023-04-02T06:57:08.493Z,69.56
2023-04-02T06:59:44.193Z,69.49
2023-04-02T07:02:30.744Z,69.36
2023-04-02T07:05:06.002Z,69.56
2023-04-02T07:07:36.188Z,69.38
2023-04-02T07:10:09.405Z,69.38
2023-04-02T07:12:38.239Z,69.58
2023-04-02T07:15:16.113Z,69.49
2023-04-02T07:17:48.697Z,69.45
2023-04-02T07:20:31.736Z,69.46
2023-04-02T07:23:03.706Z,69.29
2023-04-02T07:25:32.085Z,68.87
2023-04-02T07:28:01.599Z,68.81
2023-04-02T07:30:31.497Z,68.72
2023-04-02T07:33:00.158Z,68.60
2023-04-02T07:35:28.610Z,68.66
2023-04-02T07:37:57.294Z,68.74
2023-04-02T07:40:26.268Z,68.84
2023-04-02T07:42:54.423Z,68.80
2023-04-02T07:45:22.697Z,68.95
2023-04-02T07:47:50.897Z,69.13
2023-04-02T07:50:19.260Z,68.95
2023-04-02T07:52:48.248Z,68.87
2023-04-02T07:55:18.678Z,68.66
2023-04-02T07:57:57.398Z,68.70
2023-04-02T08:00:26.752Z,68.68
2023-04-02T08:02:56.868Z,68.77
2023-04-02T08:05:26.629Z,68.86
2023-04-02T08:07:55.723Z,68.71
2023-04-02T08:10:24.226Z,68.75
2023-04-02T08:12:57.501Z,68.65
2023-04-02T08:15:25.936Z,68.45
2023-04-02T08:17:54.435Z,68.52
2023-04-02T08:20:23.564Z,68.49
2023-04-02T08:22:52.458Z,68.50
2023-04-02T08:25:20.847Z,68.57
2023-04-02T08:27:50.041Z,68.63
2023-04-02T08:30:18.832Z,68.50
2023-04-02T08:32:47.925Z,68.36
2023-04-02T08:35:16.610Z,68.23
2023-04-02T08:37:47.343Z,68.22
2023-04-02T08:40:23.326Z,68.28
2023-04-02T08:42:57.251Z,68.44
2023-04-02T08:45:42.550Z,68.48
2023-04-02T08:48:11.268Z,68.37
2023-04-02T08:50:41.595Z,68.39
2023-04-02T08:53:26.412Z,68.21
2023-04-02T08:56:05.529Z,68.16
2023-04-02T08:58:59.568Z,68.12
2023-04-02T09:01:37.239Z,68.28
2023-04-02T09:04:16.866Z,68.46
2023-04-02T09:06:47.168Z,68.38
2023-04-02T09:09:16.028Z,68.31
2023-04-02T09:12:03.136Z,68.18
2023-04-02T09:14:46.138Z,68.15
2023-04-02T09:17:22.339Z,68.07
2023-04-02T09:20:02.291Z,68.38
2023-04-02T09:22:32.197Z,68.45
2023-04-02T09:25:02.434Z,68.44
2023-04-02T09:27:36.786Z,68.34
2023-04-02T09:30:29.841Z,68.55
2023-04-02T09:33:02.214Z,68.61
2023-04-02T09:35:32.604Z,68.50
2023-04-02T09:38:09.989Z,68.44
2023-04-02T09:40:47.379Z,68.28
2023-04-02T09:43:18.622Z,68.43
2023-04-02T09:45:57.553Z,68.55
2023-04-02T09:48:30.460Z,68.77
2023-04-02T09:51:12.454Z,68.85
2023-04-02T09:53:49.465Z,68.84
2023-04-02T09:56:21.775Z,68.77
2023-04-02T09:59:13.164Z,68.77
2023-04-02T10:01:47.993Z,68.69
2023-04-02T10:04:31.749Z,68.88
2023-04-02T10:06:59.949Z,68.89
2023-04-02T10:09:30.792Z,68.77
2023-04-02T10:12:00.047Z,68.79
2023-04-02T10:14:38.914Z,68.57
2023-04-02T10:17:13.274Z,68.16
2023-04-02T10:19:43.858Z,68.03
2023-04-02T10:22:16.692Z,68.04
2023-04-02T10:24:46.350Z,68.07
2023-04-02T10:27:26.346Z,68.17
2023-04-02T10:30:02.706Z,68.09
2023-04-02T10:32:46.553Z,68.30
2023-04-02T10:35:29.770Z,67.98
2023-04-02T10:38:16.655Z,67.96
2023-04-02T10:41:21.314Z,67.81
2023-04-02T10:44:16.684Z,67.83
2023-04-02T10:47:02.192Z,67.99
2023-04-02T10:50:07.390Z,67.79
2023-04-02T10:52:40.101Z,67.62
2023-04-02T10:55:23.541Z,67.52
2023-04-02T10:57:52.275Z,67.41
2023-04-02T11:00:25.356Z,67.25
2023-04-02T11:03:07.386Z,67.20
2023-04-02T11:05:44.512Z,67.14
2023-04-02T11:08:22.029Z,67.14
2023-04-02T11:11:21.538Z,67.14
2023-04-02T11:14:06.387Z,66.95
2023-04-02T11:16:36.993Z,66.82
2023-04-02T11:19:16.648Z,66.81
2023-04-02T11:22:02.690Z,66.73
2023-04-02T11:24:38.392Z,66.64
2023-04-02T11:27:12.490Z,66.59
2023-04-02T11:30:16.435Z,66.72
2023-04-02T11:32:51.233Z,66.90
2023-04-02T11:35:31.986Z,67.09
2023-04-02T11:38:23.943Z,67.01
2023-04-02T11:40:54.914Z,67.18
2023-04-02T11:43:35.980Z,67.19
2023-04-02T11:57:56.741Z,67.15
2023-04-02T12:00:28.097Z,65.92
2023-04-02T12:03:25.140Z,65.75
2023-04-02T12:05:58.537Z,65.48
2023-04-02T12:08:36.232Z,65.30
2023-04-02T12:11:08.951Z,65.33
2023-04-02T12:13:38.737Z,65.38
2023-04-02T12:16:12.537Z,65.52
2023-04-02T12:18:53.200Z,65.61
2023-04-02T12:21:25.822Z,65.56
2023-04-02T12:23:54.556Z,65.64
2023-04-02T12:26:36.462Z,65.76
2023-04-02T12:29:20.463Z,65.86
2023-04-02T12:31:47.665Z,65.88
2023-04-02T12:34:19.629Z,66.04
2023-04-02T12:37:02.138Z,66.22
2023-04-02T12:39:30.408Z,66.43
2023-04-02T12:42:00.803Z,66.54
2023-04-02T12:44:29.263Z,66.60
2023-04-02T12:46:56.074Z,66.66
2023-04-02T12:49:37.666Z,66.71
2023-04-02T12:52:15.694Z,66.75
2023-04-02T12:54:53.265Z,66.76
2023-04-02T12:57:23.301Z,66.62
2023-04-02T12:59:51.028Z,66.70
2023-04-02T13:02:22.583Z,66.81
2023-04-02T13:04:57.029Z,67.17
2023-04-02T13:07:25.289Z,67.28
2023-04-02T13:09:53.689Z,67.35
2023-04-02T13:12:32.291Z,67.42
2023-04-02T13:15:00.569Z,67.38
2023-04-02T13:17:38.057Z,67.31
2023-04-02T13:20:31.528Z,67.17
2023-04-02T13:22:59.285Z,67.08
2023-04-02T13:25:35.529Z,67.13
2023-04-02T13:28:02.668Z,67.03
2023-04-02T13:30:35.563Z,66.96
2023-04-02T13:33:10.455Z,66.95
2023-04-02T13:35:37.279Z,66.77
2023-04-02T13:38:05.645Z,66.74
2023-04-02T13:40:33.411Z,66.71
2023-04-02T13:43:00.695Z,66.78
2023-04-02T13:45:36.080Z,66.92
2023-04-02T13:48:03.684Z,66.89
2023-04-02T13:50:32.418Z,66.93
2023-04-02T13:53:06.499Z,67.06
2023-04-02T13:55:38.071Z,66.98
2023-04-02T13:58:05.510Z,66.75
2023-04-02T14:00:37.089Z,66.69
2023-04-02T14:03:23.647Z,66.73
2023-04-02T14:06:12.904Z,66.82
2023-04-02T14:09:01.458Z,66.98
2023-04-02T14:11:59.743Z,66.94
2023-04-02T14:15:04.377Z,66.85
2023-04-02T14:17:36.279Z,66.84
2023-04-02T14:20:14.744Z,66.76
2023-04-02T14:23:10.367Z,66.80
2023-04-02T14:25:41.608Z,66.96
2023-04-02T14:28:26.594Z,66.94
2023-04-02T14:31:08.790Z,66.94
2023-04-02T14:33:42.835Z,67.10
2023-04-02T14:36:24.891Z,67.04
2023-04-02T14:39:17.232Z,66.73
2023-04-02T14:41:53.057Z,66.92
2023-04-02T14:44:23.015Z,67.02
2023-04-02T14:46:50.173Z,67.05
2023-04-02T14:49:29.785Z,67.22
2023-04-02T14:52:02.656Z,67.23
2023-04-02T14:54:37.320Z,67.18
2023-04-02T14:57:18.174Z,66.98
2023-04-02T15:00:32.559Z,66.99
2023-04-02T15:03:08.430Z,67.10
2023-04-02T15:05:42.604Z,67.27
2023-04-02T15:08:29.908Z,67.48
2023-04-02T15:11:20.841Z,67.59
2023-04-02T15:13:51.850Z,67.66
2023-04-02T15:16:20.722Z,67.63
2023-04-02T15:18:52.019Z,67.50
2023-04-02T15:21:18.683Z,67.64
2023-04-02T15:24:01.111Z,67.64
2023-04-02T15:26:34.927Z,67.83
2023-04-02T15:29:25.931Z,68.00
2023-04-02T15:32:03.815Z,68.11
2023-04-02T15:34:42.670Z,68.15
2023-04-02T15:37:38.945Z,68.10
2023-04-02T15:40:08.472Z,68.13
2023-04-02T15:42:39.248Z,68.07
2023-04-02T15:45:12.268Z,68.11
2023-04-02T15:47:47.962Z,68.10
2023-04-02T15:50:28.820Z,68.04
2023-04-02T15:53:00.663Z,68.01
2023-04-02T15:55:39.789Z,67.86
2023-04-02T15:58:12.565Z,67.73
2023-04-02T16:00:41.561Z,67.78
2023-04-02T16:03:26.982Z,67.85
2023-04-02T16:06:18.562Z,67.99
2023-04-02T16:08:58.119Z,68.21
2023-04-02T16:11:25.563Z,68.35
2023-04-02T16:14:27.301Z,68.41
2023-04-02T16:16:58.311Z,68.51
2023-04-02T16:19:27.367Z,68.31
2023-04-02T16:21:58.146Z,68.46
2023-04-02T16:24:25.656Z,68.66
2023-04-02T16:27:15.170Z,68.77
2023-04-02T16:29:54.608Z,68.76
2023-04-02T16:32:54.274Z,68.86
2023-04-02T16:35:43.214Z,68.87
2023-04-02T16:38:11.526Z,68.94
2023-04-02T16:41:06.928Z,68.88
2023-04-02T16:44:00.196Z,68.67
2023-04-02T16:46:38.860Z,68.60
2023-04-02T16:49:16.341Z,68.42
2023-04-02T16:51:45.792Z,68.46
2023-04-02T16:54:18.700Z,68.50
2023-04-02T16:57:04.671Z,68.51
2023-04-02T16:59:45.657Z,68.65
2023-04-02T17:02:23.426Z,68.68
2023-04-02T17:05:12.665Z,68.67
2023-04-02T17:08:07.332Z,68.67
2023-04-02T17:10:59.117Z,68.89
2023-04-02T17:13:42.896Z,69.01
2023-04-02T17:16:27.626Z,69.03
2023-04-02T17:18:57.060Z,69.03
2023-04-02T17:21:25.746Z,68.94
2023-04-02T17:24:17.373Z,68.75
2023-04-02T17:26:47.184Z,68.39
2023-04-02T17:29:19.762Z,68.06
2023-04-02T17:31:48.717Z,67.92
2023-04-02T17:34:16.932Z,67.74
2023-04-02T17:36:43.715Z,67.56
2023-04-02T17:39:21.389Z,67.43
2023-04-02T17:41:59.426Z,67.45
2023-04-02T17:44:51.411Z,67.66
2023-04-02T17:47:56.080Z,67.58
2023-04-02T17:50:29.231Z,67.57
2023-04-02T17:53:12.772Z,67.57
2023-04-02T17:55:50.979Z,67.61
2023-04-02T17:58:18.005Z,67.77
2023-04-02T18:01:07.607Z,67.75
2023-04-02T18:03:47.140Z,67.79
2023-04-02T18:06:21.582Z,67.70
2023-04-02T18:09:11.062Z,67.66
2023-04-02T18:12:10.558Z,67.70
2023-04-02T18:15:05.344Z,67.91
2023-04-02T18:18:04.298Z,68.06
2023-04-02T18:20:39.151Z,67.96
2023-04-02T18:23:21.375Z,67.88
2023-04-02T18:26:17.803Z,67.96
2023-04-02T18:29:28.180Z,67.87
2023-04-02T18:31:59.523Z,67.77
2023-04-02T18:34:45.002Z,67.83
2023-04-02T18:37:43.906Z,67.90
2023-04-02T18:40:23.639Z,67.88
2023-04-02T18:43:21.566Z,67.93
2023-04-02T18:46:04.996Z,67.86
2023-04-02T18:48:56.263Z,67.89
2023-04-02T18:51:25.459Z,67.79
2023-04-02T18:54:01.003Z,67.79
2023-04-02T18:56:28.395Z,67.88
2023-04-02T18:59:20.608Z,67.82
2023-04-02T19:01:49.082Z,67.76
2023-04-02T19:04:22.063Z,67.96
2023-04-02T19:06:56.290Z,68.09
2023-04-02T19:09:30.604Z,68.07
2023-04-02T19:11:57.451Z,68.11
2023-04-02T19:14:26.659Z,67.87
2023-04-02T19:17:19.097Z,67.81
2023-04-02T19:19:55.368Z,67.87
2023-04-02T19:22:50.880Z,68.06
2023-04-02T19:25:57.455Z,68.20
2023-04-02T19:28:37.191Z,68.21
2023-04-02T19:31:34.097Z,68.22
2023-04-02T19:34:23.409Z,68.28
2023-04-02T19:37:13.600Z,68.35
2023-04-02T19:40:02.460Z,68.23
2023-04-02T19:42:53.677Z,68.38
2023-04-02T19:45:32.291Z,68.40
2023-04-02T19:48:15.203Z,68.51
2023-04-02T19:50:43.392Z,68.49
2023-04-02T19:53:12.591Z,68.46
2023-04-02T19:55:40.967Z,68.58
2023-04-02T19:58:30.340Z,68.33
2023-04-02T20:00:57.596Z,68.18
2023-04-02T20:03:25.148Z,68.15
2023-04-02T20:05:56.359Z,68.15
2023-04-02T20:08:27.442Z,68.23
2023-04-02T20:10:55.533Z,68.31
2023-04-02T20:13:25.733Z,68.42
2023-04-02T20:15:58.423Z,68.27
2023-04-02T20:18:25.974Z,68.22
2023-04-02T20:20:54.356Z,68.28
2023-04-02T20:23:22.633Z,68.55
2023-04-02T20:25:53.888Z,68.39
2023-04-02T20:28:22.412Z,68.14
2023-04-02T20:30:49.743Z,68.22
2023-04-02T20:33:17.713Z,68.15
2023-04-02T20:35:51.948Z,68.21
2023-04-02T20:38:19.478Z,68.08
2023-04-02T20:40:52.116Z,68.04
2023-04-02T20:43:22.060Z,68.12
2023-04-02T20:45:55.785Z,68.18
2023-04-02T20:48:23.528Z,68.12
2023-04-02T20:50:53.353Z,68.21
2023-04-02T20:53:20.397Z,68.04
2023-04-02T20:55:47.337Z,68.00
2023-04-02T20:58:16.572Z,67.91
2023-04-02T21:00:44.099Z,67.85
2023-04-02T21:03:12.429Z,67.98
2023-04-02T21:05:46.350Z,68.08
2023-04-02T21:08:13.390Z,68.13
2023-04-02T21:10:44.988Z,68.19
2023-04-02T21:13:12.754Z,68.25
2023-04-02T21:15:42.547Z,68.30
2023-04-02T21:18:10.816Z,68.16
2023-04-02T21:20:38.096Z,67.94
2023-04-02T21:23:05.038Z,67.99
2023-04-02T21:25:31.978Z,68.01
2023-04-02T21:27:58.921Z,68.07
2023-04-02T21:30:26.393Z,68.11
2023-04-02T21:32:53.968Z,68.05
2023-04-02T21:35:20.888Z,67.95
2023-04-02T21:37:47.624Z,67.88
2023-04-02T21:40:14.541Z,67.72
2023-04-02T21:42:41.709Z,67.70
2023-04-02T21:45:09.085Z,67.64
2023-04-02T21:47:35.902Z,67.55
2023-04-02T21:50:03.363Z,67.38
2023-04-02T21:52:30.525Z,67.29
2023-04-02T21:54:57.263Z,67.24
2023-04-02T21:57:24.144Z,67.24
2023-04-02T21:59:51.004Z,67.00
2023-04-02T22:02:17.799Z,67.02
2023-04-02T22:04:44.951Z,67.13
2023-04-02T22:07:11.692Z,67.45
2023-04-02T22:09:38.463Z,67.51
2023-04-02T22:12:07.426Z,67.54
2023-04-02T22:14:34.271Z,67.60
2023-04-02T22:17:02.917Z,67.56
2023-04-02T22:19:32.568Z,67.41
2023-04-02T22:21:59.712Z,67.55
2023-04-02T22:24:28.505Z,67.78
2023-04-02T22:26:56.989Z,68.10
2023-04-02T22:29:23.726Z,68.27
2023-04-02T22:31:51.597Z,68.49
2023-04-02T22:34:18.536Z,68.56
2023-04-02T22:36:45.280Z,68.58
2023-04-02T22:39:12.847Z,68.61
2023-04-02T22:41:39.833Z,68.56
2023-04-02T22:44:06.814Z,68.67
2023-04-02T22:46:34.102Z,68.79
2023-04-02T22:49:00.902Z,68.84
2023-04-02T22:51:28.520Z,69.01
2023-04-02T22:53:55.818Z,69.15
2023-04-02T22:56:26.009Z,69.12
2023-04-02T22:58:52.699Z,69.14
2023-04-02T23:01:22.061Z,69.30
2023-04-02T23:03:49.117Z,69.54
2023-04-02T23:06:16.857Z,69.57
2023-04-02T23:08:43.758Z,69.70
2023-04-02T23:11:18.088Z,69.61
2023-04-02T23:13:46.665Z,69.34
2023-04-02T23:16:14.066Z,69.43
2023-04-02T23:18:46.806Z,69.66
2023-04-02T23:21:13.962Z,69.92
2023-04-02T23:23:40.903Z,69.83
2023-04-02T23:26:12.665Z,69.75
2023-04-02T23:28:39.819Z,69.76
2023-04-02T23:31:08.664Z,69.59
2023-04-02T23:33:35.637Z,69.74
2023-04-02T23:36:10.610Z,70.02
2023-04-02T23:38:39.576Z,70.19
2023-04-02T23:41:06.403Z,70.46
2023-04-02T23:43:33.261Z,70.52
2023-04-02T23:46:00.718Z,70.66
2023-04-02T23:48:28.067Z,70.60
2023-04-02T23:50:55.220Z,70.69
2023-04-02T23:53:23.500Z,71.04
2023-04-02T23:55:54.109Z,71.24
2023-04-02T23:58:21.793Z,71.31
